Time;durP1;ratioP1;P1;durP2;ratioP2;P2;SDS_P1;SDS_P2;PMS_P1;PMS_P2;Temp;Humidity;BMP_temperature;BMP_pressure;BME280_temperature;BME280_humidity;BME280_pressure;Samples;Min_cycle;Max_cycle;Signal;HPM_P1;HPM_P2
2023/09/06 00:01:10;;;;;;;1.00;1.00;;;;;;;18.29;nan;-14955.75;5011711;28;20183;-67
2023/09/06 00:03:37;;;;;;;0.93;0.93;;;;;;;18.27;nan;-14631.97;5014406;28;20211;-68
2023/09/06 00:06:04;;;;;;;1.23;1.23;;;;;;;18.49;nan;-12692.06;5020521;28;20175;-66
2023/09/06 00:08:34;;;;;;;0.90;0.90;;;;;;;18.26;nan;-11394.75;5011764;28;20236;-67
2023/09/06 00:11:05;;;;;;;0.60;0.60;;;;;;;18.40;nan;-11719.66;5012081;28;20180;-65
2023/09/06 00:13:34;;;;;;;2.20;2.03;;;;;;;18.40;nan;-11395.72;5011467;28;20172;-66
2023/09/06 00:16:03;;;;;;;0.93;0.93;;;;;;;18.47;nan;-10748.19;5011694;28;20237;-66
2023/09/06 00:18:29;;;;;;;0.70;0.70;;;;;;;18.51;nan;-9127.72;5011816;28;20195;-67
2023/09/06 00:20:57;;;;;;;0.85;0.85;;;;;;;18.64;nan;-7506.25;5011498;28;20588;-66
2023/09/06 00:23:25;;;;;;;1.30;1.20;;;;;;;18.60;nan;-8803.69;5011755;28;20575;-68
2023/09/06 00:25:52;;;;;;;6.10;2.35;;;;;;;18.46;nan;-6857.38;5012054;28;20172;-66
2023/09/06 00:28:19;;;;;;;0.90;0.90;;;;;;;18.62;nan;-5883.63;5011496;28;20299;-66
2023/09/06 00:30:45;;;;;;;1.13;1.13;;;;;;;18.76;nan;-4584.38;5011499;28;20233;-68
2023/09/06 00:33:10;;;;;;;1.15;1.15;;;;;;;18.50;nan;-4910.13;5011558;28;20262;-67
2023/09/06 00:35:40;;;;;;;0.90;0.90;;;;;;;18.71;nan;-5234.09;5011547;28;20259;-66
2023/09/06 00:38:06;;;;;;;0.95;0.95;;;;;;;18.47;nan;-6532.94;5011730;28;20172;-68
2023/09/06 00:40:36;;;;;;;1.55;1.45;;;;;;;18.54;nan;-7181.78;5011464;28;20623;-68
2023/09/06 00:43:03;;;;;;;1.00;1.00;;;;;;;18.77;nan;-5883.31;5011569;28;20168;-66
2023/09/06 00:45:53;;;;;;;2.22;1.95;;;;;;;18.83;nan;-5233.69;5014860;28;20164;-66
2023/09/06 00:48:21;;;;;;;1.05;0.95;;;;;;;18.64;nan;-4909.59;5015163;28;20180;-67
2023/09/06 00:50:52;;;;;;;0.70;0.70;;;;;;;18.87;nan;-3934.13;5015228;28;20234;-68
2023/09/06 00:53:19;;;;;;;0.95;0.95;;;;;;;18.93;nan;-3608.81;5014751;28;20211;-68
2023/09/06 00:55:45;;;;;;;1.23;1.17;;;;;;;18.63;nan;-4584.94;5015094;28;20661;-66
2023/09/06 00:58:16;;;;;;;0.80;0.80;;;;;;;18.82;nan;-3934.38;5014788;28;20267;-67
2023/09/06 01:00:49;;;;;;;0.80;0.80;;;;;;;18.88;nan;-683.16;5014933;28;20254;-67
2023/09/06 01:03:16;;;;;;;1.13;1.13;;;;;;;18.92;nan;618.66;5014769;28;20608;-66
2023/09/06 01:06:04;;;;;;;1.23;1.15;;;;;;;19.12;nan;3226.31;5014790;28;20187;-67
2023/09/06 01:08:39;;;;;;;1.13;1.13;;;;;;;19.06;nan;2248.22;5014793;28;20227;-66
2023/09/06 01:11:21;;;;;;;0.80;0.80;;;;;;;18.65;nan;-1660.84;5015043;28;20172;-67
2023/09/06 01:13:51;;;;;;;1.10;1.10;;;;;;;18.78;nan;-3609.69;5014876;28;20165;-66
2023/09/06 01:16:21;;;;;;;0.80;0.80;;;;;;;18.68;nan;-3935.13;5014724;28;20589;-68
2023/09/06 01:18:47;;;;;;;0.80;0.80;;;;;;;18.62;nan;-1661.06;5014544;28;20183;-66
2023/09/06 01:21:16;;;;;;;1.02;1.02;;;;;;;18.68;nan;290.31;5014298;28;20635;-68
2023/09/06 01:23:43;;;;;;;0.73;0.73;;;;;;;18.84;nan;-32.97;5015952;28;20176;-68
2023/09/06 01:26:08;;;;;;;1.10;1.10;;;;;;;18.92;nan;1595.06;5014523;28;20195;-67
2023/09/06 01:28:34;;;;;;;0.85;0.85;;;;;;;18.91;nan;3222.81;5014304;28;20188;-67
2023/09/06 01:31:00;;;;;;;0.75;0.75;;;;;;;18.98;nan;619.47;5014511;28;20183;-68
2023/09/06 01:33:28;;;;;;;0.90;0.90;;;;;;;18.73;nan;-34.34;5014391;28;20271;-67
2023/09/06 01:35:54;;;;;;;1.05;1.05;;;;;;;18.89;nan;2245.69;5014346;28;20242;-67
2023/09/06 01:38:20;;;;;;;1.05;1.05;;;;;;;18.91;nan;4525.72;5014316;28;20179;-68
2023/09/06 01:40:45;;;;;;;1.42;1.00;;;;;;;18.97;nan;944.81;5014154;28;20172;-68
2023/09/06 01:43:12;;;;;;;0.90;0.90;;;;;;;18.93;nan;1269.66;5013779;28;20570;-66
2023/09/06 01:45:42;;;;;;;1.10;0.70;;;;;;;18.70;nan;290.63;5014654;28;20172;-67
2023/09/06 01:48:07;;;;;;;1.48;1.10;;;;;;;18.76;nan;-359.22;5014099;28;20187;-68
2023/09/06 01:50:33;;;;;;;0.70;0.70;;;;;;;18.77;nan;-359.09;5013939;28;20195;-68
2023/09/06 01:52:58;;;;;;;1.10;1.10;;;;;;;18.89;nan;-1983.81;5014072;28;20172;-68
2023/09/06 01:55:24;;;;;;;0.80;0.80;;;;;;;18.98;nan;-682.06;5013973;28;20168;-66
2023/09/06 01:57:49;;;;;;;0.73;0.73;;;;;;;19.01;nan;-1007.06;5013788;28;20170;-66
2023/09/06 02:00:19;;;;;;;1.15;1.15;;;;;;;18.87;nan;-357.94;5013729;28;20182;-68
2023/09/06 02:02:45;;;;;;;0.93;0.93;;;;;;;19.15;nan;947.13;5013817;28;20187;-68
2023/09/06 02:05:11;;;;;;;1.52;1.42;;;;;;;18.98;nan;-1332.63;5013814;28;20172;-67
2023/09/06 02:07:36;;;;;;;1.30;0.70;;;;;;;18.94;nan;-2633.63;5013737;28;20278;-68
2023/09/06 02:10:03;;;;;;;2.35;1.75;;;;;;;18.90;nan;-2958.97;5013500;28;20198;-67
2023/09/06 02:12:29;;;;;;;0.70;0.70;;;;;;;18.75;nan;-5883.34;5013646;28;20191;-67
2023/09/06 02:14:56;;;;;;;0.68;0.65;;;;;;;18.63;nan;-5883.63;5013458;28;20203;-67
2023/09/06 02:17:24;;;;;;;1.05;1.02;;;;;;;18.89;nan;-5558.28;5013789;28;20168;-68
2023/09/06 02:19:49;;;;;;;1.13;1.13;;;;;;;18.79;nan;-2959.75;5013296;28;20222;-67
2023/09/06 02:22:14;;;;;;;0.73;0.73;;;;;;;18.84;nan;-2309.34;5013299;28;20180;-68
2023/09/06 02:24:40;;;;;;;0.73;0.73;;;;;;;18.85;nan;-2634.28;5013113;28;20175;-66
2023/09/06 02:27:05;;;;;;;0.75;0.75;;;;;;;18.73;nan;-4909.25;5013396;28;20164;-68
2023/09/06 02:29:31;;;;;;;0.63;0.63;;;;;;;18.90;nan;-7181.78;5013318;28;20231;-67
2023/09/06 02:31:57;;;;;;;0.70;0.70;;;;;;;18.84;nan;-7506.34;5013313;28;20179;-66
2023/09/06 02:34:22;;;;;;;0.90;0.90;;;;;;;18.84;nan;-8479.88;5013088;28;20168;-67
2023/09/06 02:36:47;;;;;;;0.80;0.80;;;;;;;18.81;nan;-8479.81;5013161;28;20176;-68
2023/09/06 02:39:13;;;;;;;0.80;0.80;;;;;;;18.66;nan;-8803.84;5013452;28;20169;-68
2023/09/06 02:41:38;;;;;;;0.70;0.70;;;;;;;18.84;nan;-9777.44;5012996;28;20191;-68
2023/09/06 02:44:05;;;;;;;0.80;0.80;;;;;;;18.65;nan;-9776.66;5013468;28;20658;-66
2023/09/06 02:46:33;;;;;;;0.80;0.80;;;;;;;18.58;nan;-9452.16;5012784;28;20559;-65
2023/09/06 02:49:10;;;;;;;0.50;0.50;;;;;;;18.78;nan;-9128.53;5012906;28;20200;-67
2023/09/06 02:51:37;;;;;;;0.63;0.63;;;;;;;18.90;nan;-7181.78;5012803;28;20602;-68
2023/09/06 02:54:03;;;;;;;0.77;0.77;;;;;;;19.05;nan;-4583.16;5012712;28;20662;-68
2023/09/06 02:56:28;;;;;;;0.80;0.80;;;;;;;18.85;nan;-4259.13;5012911;28;20172;-66
2023/09/06 02:58:53;;;;;;;0.70;0.70;;;;;;;19.00;nan;-3933.44;5012824;28;20179;-66
2023/09/06 03:01:19;;;;;;;0.90;0.90;;;;;;;18.98;nan;-5882.84;5012392;28;20202;-66
2023/09/06 03:03:51;;;;;;;0.63;0.63;;;;;;;18.73;nan;-6857.22;5016285;28;20180;-66
2023/09/06 03:06:17;;;;;;;0.77;0.77;;;;;;;18.87;nan;-8479.94;5013982;28;20318;-67
2023/09/06 03:08:47;;;;;;;1.27;1.27;;;;;;;18.67;nan;-7181.78;5012479;28;20288;-68
2023/09/06 03:11:15;;;;;;;0.70;0.70;;;;;;;18.47;nan;-5883.94;5012642;28;20172;-68
2023/09/06 03:13:42;;;;;;;1.17;1.08;;;;;;;18.81;nan;-1659.41;5012459;28;20192;-66
2023/09/06 03:16:13;;;;;;;1.60;1.50;;;;;;;18.87;nan;-3934.09;5012961;28;20176;-67
2023/09/06 03:18:40;;;;;;;7.60;2.67;;;;;;;18.77;nan;-5233.91;5012470;28;20207;-66
2023/09/06 03:21:06;;;;;;;0.93;0.93;;;;;;;18.76;nan;-7506.31;5014435;28;20185;-67
2023/09/06 03:23:32;;;;;;;0.75;0.75;;;;;;;18.51;nan;-8154.88;5012486;28;20560;-67
2023/09/06 03:25:58;;;;;;;1.60;1.50;;;;;;;18.75;nan;-8155.25;5012424;28;20180;-68
2023/09/06 03:28:28;;;;;;;0.70;0.70;;;;;;;18.79;nan;-8479.78;5012273;28;20175;-68
2023/09/06 03:31:00;;;;;;;1.27;1.25;;;;;;;18.67;nan;-5234.19;5012407;28;20164;-67
2023/09/06 03:33:27;;;;;;;0.90;0.90;;;;;;;18.69;nan;-4259.88;5012286;28;20191;-66
2023/09/06 03:35:52;;;;;;;0.80;0.80;;;;;;;18.62;nan;-6208.22;5012494;28;20176;-67
2023/09/06 03:38:19;;;;;;;1.55;1.13;;;;;;;18.82;nan;-6857.19;5012065;28;20318;-67
2023/09/06 03:40:44;;;;;;;0.90;0.90;;;;;;;18.78;nan;-7506.31;5012193;28;20559;-66
2023/09/06 03:43:16;;;;;;;0.73;0.73;;;;;;;18.67;nan;-7181.78;5011866;28;20176;-66
2023/09/06 03:45:55;;;;;;;0.95;0.95;;;;;;;18.93;nan;-6532.44;5012156;28;20330;-67
2023/09/06 03:48:23;;;;;;;0.90;0.90;;;;;;;18.80;nan;-5558.53;5011967;28;20639;-66
2023/09/06 03:50:55;;;;;;;1.10;1.10;;;;;;;18.88;nan;-5883.06;5012178;28;20160;-67
2023/09/06 03:53:25;;;;;;;1.00;1.00;;;;;;;18.81;nan;-4908.97;5011678;28;20618;-67
2023/09/06 03:56:00;;;;;;;0.70;0.70;;;;;;;18.89;nan;-3609.03;5011859;28;20191;-68
2023/09/06 03:58:27;;;;;;;0.70;0.70;;;;;;;19.09;nan;-3607.88;5011679;28;20566;-68
2023/09/06 04:00:53;;;;;;;1.33;0.93;;;;;;;18.92;nan;-4908.56;5011835;28;20184;-68
2023/09/06 04:03:19;;;;;;;1.83;1.67;;;;;;;18.76;nan;-5558.66;5027126;28;20271;-68
2023/09/06 04:05:45;;;;;;;1.20;1.13;;;;;;;18.77;nan;-5233.91;5011953;28;20180;-66
2023/09/06 04:08:17;;;;;;;0.85;0.85;;;;;;;18.99;nan;-3933.47;5011261;28;20306;-68
2023/09/06 04:10:44;;;;;;;0.82;0.82;;;;;;;18.76;nan;-4259.56;5011924;28;20174;-66
2023/09/06 04:13:11;;;;;;;0.90;0.90;;;;;;;18.84;nan;-4259.19;5011624;28;20156;-67
2023/09/06 04:15:37;;;;;;;3.42;0.98;;;;;;;18.92;nan;-3608.84;5016832;28;20187;-67
2023/09/06 04:18:09;;;;;;;0.60;0.60;;;;;;;19.01;nan;-4258.34;5011772;28;20178;-66
2023/09/06 04:20:36;;;;;;;1.00;1.00;;;;;;;18.94;nan;-5233.31;5015221;28;20179;-67
2023/09/06 04:23:06;;;;;;;0.52;0.52;;;;;;;19.11;nan;-2307.16;5015824;28;20643;-67
2023/09/06 04:25:33;;;;;;;0.60;0.60;;;;;;;19.03;nan;-4583.22;5017874;28;20271;-66
2023/09/06 04:28:00;;;;;;;0.85;0.85;;;;;;;19.02;nan;-5557.97;5015656;28;20659;-68
2023/09/06 04:30:30;;;;;;;6.65;2.17;;;;;;;18.92;nan;-7506.38;5015458;28;20204;-67
2023/09/06 04:32:59;;;;;;;1.00;1.00;;;;;;;19.06;nan;-5232.97;5015530;28;20165;-67
2023/09/06 04:35:51;;;;;;;1.00;1.00;;;;;;;19.11;nan;-5232.78;4995936;28;20184;-67
2023/09/06 04:38:19;;;;;;;0.80;0.80;;;;;;;18.89;nan;-5883.03;5016973;28;20323;-66
2023/09/06 04:40:46;;;;;;;0.52;0.52;;;;;;;19.16;nan;-4907.66;5017427;28;20191;-66
2023/09/06 04:43:17;;;;;;;1.00;1.00;;;;;;;19.13;nan;-3282.53;5017267;28;20270;-67
2023/09/06 04:45:43;;;;;;;0.60;0.60;;;;;;;19.21;nan;-3607.19;5017462;28;20184;-66
2023/09/06 04:48:10;;;;;;;1.15;1.08;;;;;;;18.98;nan;-5882.84;5017174;28;20190;-65
2023/09/06 04:50:37;;;;;;;0.65;0.65;;;;;;;18.78;nan;-7181.78;5017612;28;20675;-64
2023/09/06 04:53:04;;;;;;;1.40;1.13;;;;;;;18.91;nan;-7506.38;5016351;28;20205;-64
2023/09/06 04:55:33;;;;;;;0.80;0.80;;;;;;;18.85;nan;-8804.34;5020470;28;20643;-64
2023/09/06 04:58:00;;;;;;;0.70;0.70;;;;;;;18.63;nan;-8155.06;5017300;28;20580;-66
2023/09/06 05:00:30;;;;;;;1.02;0.93;;;;;;;18.90;nan;-6857.13;5014948;28;20187;-65
2023/09/06 05:02:57;;;;;;;0.82;0.82;;;;;;;19.03;nan;-6857.06;5018171;28;20171;-66
2023/09/06 05:05:23;;;;;;;1.25;1.20;;;;;;;19.15;nan;-4907.69;5014584;28;20266;-66
2023/09/06 05:07:49;;;;;;;0.80;0.80;;;;;;;18.86;nan;-7181.78;5014653;28;20228;-67
2023/09/06 05:10:15;;;;;;;1.15;1.13;;;;;;;18.69;nan;-10749.44;5014871;28;20195;-67
2023/09/06 05:12:40;;;;;;;0.93;0.93;;;;;;;18.93;nan;-10750.78;5014779;28;20587;-68
2023/09/06 05:15:06;;;;;;;1.45;1.40;;;;;;;19.05;nan;-8480.28;5014723;28;20253;-66
2023/09/06 05:17:32;;;;;;;0.93;0.93;;;;;;;18.86;nan;-8804.38;5014763;28;20271;-68
2023/09/06 05:20:33;;;;;;;0.98;0.98;;;;;;;19.25;nan;-8156.00;5014428;28;20263;-67
2023/09/06 05:23:01;;;;;;;1.85;1.75;;;;;;;19.15;nan;-4582.72;5014478;28;20187;-65
2023/09/06 05:25:26;;;;;;;0.70;0.70;;;;;;;19.24;nan;-5232.38;5011220;28;20176;-66
2023/09/06 05:27:57;;;;;;;1.00;1.00;;;;;;;19.48;nan;-5881.78;5014507;28;20178;-65
2023/09/06 05:30:22;;;;;;;1.25;1.20;;;;;;;19.55;nan;-6206.69;5013782;28;20180;-68
2023/09/06 05:32:48;;;;;;;1.45;1.35;;;;;;;19.69;nan;-4580.41;5014682;28;20180;-67
2023/09/06 05:35:13;;;;;;;0.93;0.93;;;;;;;19.73;nan;-3929.53;5016142;28;20737;-67
2023/09/06 05:37:39;;;;;;;1.58;1.00;;;;;;;19.79;nan;-4579.94;5018763;28;20190;-66
2023/09/06 05:40:07;;;;;;;0.93;0.93;;;;;;;19.71;nan;-4580.31;5014246;28;20251;-67
2023/09/06 05:42:37;;;;;;;1.42;1.33;;;;;;;20.05;nan;3894.56;5014144;28;20175;-65
2023/09/06 05:45:03;;;;;;;0.60;0.60;;;;;;;19.82;nan;2259.84;5012953;28;20192;-66
2023/09/06 05:47:29;;;;;;;1.10;1.10;;;;;;;19.64;nan;1279.44;5014097;28;20258;-68
2023/09/06 05:49:55;;;;;;;0.85;0.85;;;;;;;19.89;nan;-20.81;5013871;28;20207;-66
2023/09/06 05:52:24;;;;;;;1.10;1.10;;;;;;;19.75;nan;-673.94;5015614;28;20267;-66
2023/09/06 05:54:50;;;;;;;0.80;0.80;;;;;;;20.12;nan;-18.09;5014096;28;20191;-68
2023/09/06 05:57:15;;;;;;;0.95;0.95;;;;;;;20.00;nan;306.41;5013656;28;20176;-66
2023/09/06 05:59:41;;;;;;;1.00;1.00;;;;;;;20.25;nan;2592.81;5016213;28;20274;-67
2023/09/06 06:02:07;;;;;;;8.20;1.20;;;;;;;20.32;nan;6838.97;5013724;28;20671;-67
2023/09/06 06:04:33;;;;;;;0.90;0.90;;;;;;;20.08;nan;10755.34;5018484;28;20222;-65
2023/09/06 06:06:59;;;;;;;0.60;0.60;;;;;;;20.17;nan;17305.78;5018069;28;20670;-66
2023/09/06 06:09:25;;;;;;;0.90;0.90;;;;;;;20.10;nan;15665.19;5004637;28;20231;-66
2023/09/06 06:11:53;;;;;;;0.75;0.73;;;;;;;20.33;nan;14035.66;5002101;28;20173;-67
2023/09/06 06:14:19;;;;;;;0.80;0.80;;;;;;;20.10;nan;8794.47;5002760;28;20181;-66
2023/09/06 06:16:44;;;;;;;0.60;0.60;;;;;;;20.24;nan;9125.06;4993865;28;20227;-66
2023/09/06 06:19:10;;;;;;;0.90;0.90;;;;;;;20.28;nan;9452.97;4993874;28;20255;-67
2023/09/06 06:21:35;;;;;;;0.70;0.70;;;;;;;20.14;nan;10757.25;4993914;28;20157;-66
2023/09/06 06:24:01;;;;;;;0.80;0.80;;;;;;;20.39;nan;13382.97;5010702;28;20536;-67
2023/09/06 06:26:27;;;;;;;0.60;0.60;;;;;;;20.51;nan;18631.09;5013837;28;20639;-68
2023/09/06 06:28:52;;;;;;;0.75;0.75;;;;;;;20.43;nan;20268.25;5013370;28;20630;-66
2023/09/06 06:31:18;;;;;;;0.88;0.80;;;;;;;20.46;nan;18301.00;5013445;28;20176;-68
2023/09/06 06:33:43;;;;;;;0.40;0.40;;;;;;;20.77;nan;18970.06;5013639;28;20168;-67
2023/09/06 06:36:09;;;;;;;0.93;0.93;;;;;;;20.83;nan;19957.47;5012821;28;20643;-66
2023/09/06 06:38:34;;;;;;;0.77;0.77;;;;;;;20.87;nan;27848.88;5015959;28;20182;-67
2023/09/06 06:41:00;;;;;;;1.50;1.40;;;;;;;20.68;nan;24220.94;5012885;28;20655;-68
2023/09/06 06:43:27;;;;;;;0.80;0.80;;;;;;;21.02;nan;23909.63;5012885;28;20179;-67
2023/09/06 06:45:56;;;;;;;1.17;1.17;;;;;;;21.13;nan;22271.25;5012755;28;20211;-66
2023/09/06 06:48:21;;;;;;;1.25;1.15;;;;;;;21.05;nan;30494.03;5012965;28;20199;-66
2023/09/06 06:50:47;;;;;;;0.80;0.80;;;;;;;21.32;nan;30840.09;5013180;28;20204;-65
2023/09/06 06:53:13;;;;;;;0.95;0.95;;;;;;;21.33;nan;34139.31;5012964;28;20172;-69
2023/09/06 06:55:39;;;;;;;1.27;1.25;;;;;;;21.66;nan;40962.50;5013118;28;20188;-66
2023/09/06 06:58:07;;;;;;;0.93;0.93;;;;;;;21.78;nan;43006.75;5013115;28;20238;-68
2023/09/06 07:00:34;;;;;;;0.70;0.70;;;;;;;21.80;nan;46634.47;5013022;28;20683;-67
2023/09/06 07:02:59;;;;;;;1.10;1.05;;;;;;;21.87;nan;47671.59;5013219;28;20180;-67
2023/09/06 07:05:24;;;;;;;0.55;0.55;;;;;;;21.90;nan;48908.22;5013015;28;20263;-68
2023/09/06 07:07:50;;;;;;;0.98;0.98;;;;;;;22.23;nan;50123.03;5012866;28;20224;-68
2023/09/06 07:10:16;;;;;;;0.65;0.65;;;;;;;22.61;nan;52136.81;5012690;28;20630;-68
2023/09/06 07:12:41;;;;;;;1.77;1.63;;;;;;;22.79;nan;52318.56;5012691;28;20184;-66
2023/09/06 07:15:07;;;;;;;1.45;1.35;;;;;;;23.00;nan;55250.72;5015595;28;20267;-67
2023/09/06 07:17:33;;;;;;;0.88;0.88;;;;;;;22.95;nan;55620.16;5015034;28;20268;-67
2023/09/06 07:19:59;;;;;;;1.48;1.30;;;;;;;23.02;nan;57209.00;5013032;28;20241;-68
2023/09/06 07:22:25;;;;;;;0.82;0.82;;;;;;;23.12;nan;57347.66;5012633;28;20196;-68
2023/09/06 07:24:50;;;;;;;0.77;0.77;;;;;;;23.05;nan;58144.69;5012553;28;20184;-67
2023/09/06 07:27:15;;;;;;;1.17;1.13;;;;;;;23.07;nan;57800.03;5012806;28;20179;-68
2023/09/06 07:29:41;;;;;;;1.58;1.48;;;;;;;23.09;nan;57930.28;5011221;28;20767;-66
2023/09/06 07:32:07;;;;;;;1.00;1.00;;;;;;;23.06;nan;58278.56;5012390;28;20176;-68
2023/09/06 07:34:32;;;;;;;1.15;1.13;;;;;;;22.98;nan;58230.38;5014601;28;20184;-67
2023/09/06 07:36:58;;;;;;;0.68;0.68;;;;;;;23.13;nan;58152.75;5012473;28;20632;-66
2023/09/06 07:39:23;;;;;;;0.70;0.70;;;;;;;23.01;nan;58096.13;5012482;28;20291;-66
2023/09/06 07:41:53;;;;;;;0.73;0.73;;;;;;;22.78;nan;58370.75;5012374;28;20168;-68
2023/09/06 07:44:19;;;;;;;0.70;0.70;;;;;;;22.95;nan;58211.50;5012827;28;20176;-68
2023/09/06 07:46:48;;;;;;;0.80;0.77;;;;;;;22.82;nan;58086.16;5012891;28;20175;-69
2023/09/06 07:49:17;;;;;;;0.70;0.70;;;;;;;22.87;nan;58055.63;5012527;28;20188;-69
2023/09/06 07:51:42;;;;;;;0.85;0.85;;;;;;;22.58;nan;57701.94;5012122;28;20172;-68
2023/09/06 07:54:09;;;;;;;1.17;1.10;;;;;;;22.61;nan;57189.56;5011870;28;20525;-68
2023/09/06 07:56:35;;;;;;;1.17;0.82;;;;;;;22.61;nan;56580.97;5012034;28;20670;-68
2023/09/06 07:59:00;;;;;;;0.60;0.60;;;;;;;22.73;nan;57369.31;5012255;28;20168;-69
2023/09/06 08:01:25;;;;;;;0.73;0.73;;;;;;;22.71;nan;56719.41;5012450;28;20179;-68
2023/09/06 08:03:51;;;;;;;10.38;1.58;;;;;;;22.66;nan;57653.22;5012392;28;20258;-69
2023/09/06 08:06:16;;;;;;;0.88;0.88;;;;;;;22.75;nan;56754.31;5011955;28;20678;-67
2023/09/06 08:08:42;;;;;;;0.65;0.65;;;;;;;22.66;nan;57970.63;5012401;28;20310;-67
2023/09/06 08:11:08;;;;;;;1.42;1.33;;;;;;;22.76;nan;57955.34;5011713;28;20203;-67
2023/09/06 08:13:33;;;;;;;0.80;0.80;;;;;;;22.70;nan;57966.63;5012263;28;20557;-69
2023/09/06 08:16:00;;;;;;;0.55;0.55;;;;;;;23.12;nan;58227.19;5012230;28;20544;-69
2023/09/06 08:18:25;;;;;;;0.82;0.82;;;;;;;23.37;nan;58423.41;5011956;28;20172;-69
2023/09/06 08:20:51;;;;;;;0.73;0.73;;;;;;;23.13;nan;58564.19;5011962;28;20170;-66
2023/09/06 08:23:17;;;;;;;0.95;0.95;;;;;;;23.22;nan;58876.06;5012027;28;20251;-67
2023/09/06 08:25:42;;;;;;;0.80;0.80;;;;;;;23.52;nan;59057.25;5011800;28;20307;-67
2023/09/06 08:28:07;;;;;;;0.63;0.63;;;;;;;23.47;nan;59444.78;5012080;28;20176;-67
2023/09/06 08:30:33;;;;;;;4.28;1.80;;;;;;;23.56;nan;59431.19;5011081;28;20192;-67
2023/09/06 08:32:58;;;;;;;0.70;0.70;;;;;;;23.54;nan;59421.16;5011118;28;20261;-68
2023/09/06 08:35:26;;;;;;;0.55;0.55;;;;;;;23.62;nan;59321.00;5011562;28;20180;-68
2023/09/06 08:37:51;;;;;;;0.68;0.68;;;;;;;23.76;nan;59111.50;5011671;28;20167;-66
2023/09/06 08:40:18;;;;;;;0.63;0.63;;;;;;;24.17;nan;59771.47;5011451;28;20172;-64
2023/09/06 08:42:44;;;;;;;0.60;0.60;;;;;;;23.99;nan;59942.66;5012871;28;20218;-64
2023/09/06 08:45:10;;;;;;;0.73;0.73;;;;;;;24.10;nan;60055.97;5017932;28;20172;-64
2023/09/06 08:47:39;;;;;;;1.27;1.23;;;;;;;24.23;nan;60075.03;5017979;28;20180;-66
2023/09/06 08:50:09;;;;;;;1.30;1.23;;;;;;;24.37;nan;60062.34;5019432;28;20227;-64
2023/09/06 08:52:40;;;;;;;0.95;0.95;;;;;;;24.38;nan;60003.41;5014497;28;20176;-65
2023/09/06 08:55:06;;;;;;;1.23;1.13;;;;;;;24.22;nan;60100.03;5014822;28;20251;-64
2023/09/06 08:57:33;;;;;;;1.02;1.00;;;;;;;24.59;nan;60015.59;5011146;28;20176;-66
2023/09/06 08:59:59;;;;;;;0.98;0.98;;;;;;;24.88;nan;60386.72;5010940;28;20219;-66
2023/09/06 09:02:24;;;;;;;0.98;0.98;;;;;;;25.00;nan;60646.31;5011335;28;20660;-65
2023/09/06 09:04:49;;;;;;;1.75;1.65;;;;;;;24.81;nan;60891.09;5011795;28;20175;-67
2023/09/06 09:07:18;;;;;;;0.90;0.90;;;;;;;24.54;nan;60952.88;5014097;28;20203;-66
2023/09/06 09:10:09;;;;;;;0.80;0.80;;;;;;;24.51;nan;60967.78;5014630;28;20218;-67
2023/09/06 09:12:36;;;;;;;0.60;0.60;;;;;;;24.58;nan;61007.00;5014720;28;20176;-67
2023/09/06 09:15:03;;;;;;;0.85;0.85;;;;;;;24.86;nan;60933.25;5014493;28;20193;-67
2023/09/06 09:17:29;;;;;;;0.75;0.75;;;;;;;24.59;nan;60937.59;5014646;28;20317;-65
2023/09/06 09:19:57;;;;;;;0.88;0.88;;;;;;;24.52;nan;60987.75;5014789;28;20190;-67
2023/09/06 09:22:24;;;;;;;1.13;1.02;;;;;;;24.94;nan;60968.38;5014604;28;20168;-66
2023/09/06 09:24:49;;;;;;;0.40;0.40;;;;;;;25.27;nan;61099.47;5014548;28;20318;-65
2023/09/06 09:27:18;;;;;;;0.90;0.90;;;;;;;25.37;nan;61272.84;5014535;28;20199;-66
2023/09/06 09:29:44;;;;;;;0.60;0.60;;;;;;;25.48;nan;61371.53;5014125;28;21012;-66
2023/09/06 09:32:12;;;;;;;1.10;1.10;;;;;;;25.65;nan;61392.78;5014233;28;20250;-66
2023/09/06 09:34:39;;;;;;;0.80;0.77;;;;;;;25.74;nan;61666.69;5013846;28;20182;-66
2023/09/06 09:37:08;;;;;;;0.63;0.63;;;;;;;25.92;nan;61896.53;5014174;28;20168;-66
2023/09/06 09:39:34;;;;;;;1.33;1.02;;;;;;;26.07;nan;61947.59;5014056;28;20210;-66
2023/09/06 09:41:59;;;;;;;0.95;0.80;;;;;;;26.43;nan;62189.69;5013894;28;20257;-64
2023/09/06 09:44:25;;;;;;;0.70;0.70;;;;;;;26.72;nan;62295.56;5016176;28;20611;-68
2023/09/06 09:46:56;;;;;;;0.60;0.60;;;;;;;26.57;nan;62203.03;5013937;28;20180;-64
2023/09/06 09:49:22;;;;;;;0.60;0.60;;;;;;;26.89;nan;62215.31;5013966;28;20208;-65
2023/09/06 09:51:50;;;;;;;0.50;0.50;;;;;;;27.16;nan;62329.44;5013910;28;20183;-65
2023/09/06 09:54:20;;;;;;;1.45;1.35;;;;;;;27.49;nan;62408.53;5018399;28;20233;-66
2023/09/06 09:57:00;;;;;;;0.98;0.90;;;;;;;27.44;nan;62499.94;5014199;28;20215;-66
2023/09/06 09:59:26;;;;;;;0.82;0.82;;;;;;;27.41;nan;62446.66;5013206;28;20190;-66
2023/09/06 10:01:53;;;;;;;0.75;0.75;;;;;;;27.44;nan;62442.19;5013671;28;20176;-66
2023/09/06 10:04:21;;;;;;;0.68;0.68;;;;;;;27.60;nan;62612.81;5013537;28;20282;-65
2023/09/06 10:06:47;;;;;;;0.85;0.85;;;;;;;27.95;nan;62563.53;5013593;28;20243;-65
2023/09/06 10:09:16;;;;;;;2.85;1.33;;;;;;;28.12;nan;62613.97;5013120;28;20223;-65
2023/09/06 10:11:42;;;;;;;1.10;1.02;;;;;;;28.28;nan;62663.25;5013352;28;20172;-65
2023/09/06 10:14:09;;;;;;;1.10;1.05;;;;;;;28.03;nan;62774.47;5013196;28;20287;-66
2023/09/06 10:16:35;;;;;;;1.35;1.05;;;;;;;27.99;nan;62738.91;5012290;28;20587;-67
2023/09/06 10:19:00;;;;;;;0.93;0.93;;;;;;;28.20;nan;62772.38;5013311;28;20179;-66
2023/09/06 10:21:27;;;;;;;0.70;0.70;;;;;;;28.09;nan;62792.44;5013645;28;20553;-65
2023/09/06 10:23:52;;;;;;;1.63;1.33;;;;;;;28.00;nan;63767.75;5013310;28;20199;-66
2023/09/06 10:26:34;;;;;;;0.55;0.55;;;;;;;28.41;nan;62759.66;5013135;28;20175;-65
2023/09/06 10:29:00;;;;;;;0.70;0.68;;;;;;;28.45;nan;62691.19;5013004;28;20198;-66
2023/09/06 10:31:49;;;;;;;0.65;0.65;;;;;;;28.51;nan;62844.78;5013876;28;20176;-65
2023/09/06 10:34:15;;;;;;;0.60;0.60;;;;;;;28.47;nan;62964.38;5013674;28;20170;-66
2023/09/06 10:36:53;;;;;;;0.70;0.60;;;;;;;28.69;nan;62835.91;5013388;28;20258;-66
2023/09/06 10:39:21;;;;;;;1.98;1.50;;;;;;;27.94;nan;62709.53;5013199;28;20596;-65
2023/09/06 10:42:08;;;;;;;1.20;1.20;;;;;;;27.89;nan;62766.84;5013461;28;20191;-66
2023/09/06 10:44:55;;;;;;;0.95;0.80;;;;;;;27.42;nan;62697.75;5013427;28;20186;-65
2023/09/06 10:47:35;;;;;;;1.35;1.25;;;;;;;27.03;nan;62495.66;5012836;28;20568;-67
2023/09/06 10:50:18;;;;;;;2.13;1.63;;;;;;;27.23;nan;62686.50;5012107;28;20199;-65
2023/09/06 10:52:58;;;;;;;0.60;0.60;;;;;;;27.43;nan;62546.63;5012808;28;20172;-68
2023/09/06 10:55:29;;;;;;;1.27;0.90;;;;;;;27.79;nan;62760.09;5012388;28;20183;-66
2023/09/06 10:58:03;;;;;;;0.73;0.70;;;;;;;28.11;nan;62817.84;5012253;28;20272;-67
2023/09/06 11:00:31;;;;;;;0.85;0.85;;;;;;;28.03;nan;62614.72;5012732;28;20167;-65
2023/09/06 11:03:06;;;;;;;1.92;1.25;;;;;;;28.02;nan;62781.75;5012502;28;20643;-66
2023/09/06 11:05:37;;;;;;;0.80;0.77;;;;;;;27.75;nan;62655.66;5012651;28;20249;-66
2023/09/06 11:08:04;;;;;;;0.80;0.80;;;;;;;27.97;nan;62764.97;5012288;28;20230;-66
2023/09/06 11:10:30;;;;;;;0.70;0.70;;;;;;;28.37;nan;62820.81;5012292;28;20203;-66
2023/09/06 11:12:56;;;;;;;0.75;0.75;;;;;;;28.60;nan;62802.50;5012552;28;20250;-66
2023/09/06 11:15:25;;;;;;;1.33;1.23;;;;;;;28.61;nan;62900.41;5012587;28;20179;-65
2023/09/06 11:17:52;;;;;;;1.10;1.00;;;;;;;28.58;nan;62831.19;5012526;28;20172;-67
2023/09/06 11:20:18;;;;;;;0.90;0.90;;;;;;;28.38;nan;62853.50;5012283;28;20171;-65
2023/09/06 11:22:56;;;;;;;2.53;1.33;;;;;;;27.80;nan;62709.25;5012288;28;20566;-66
2023/09/06 11:25:23;;;;;;;0.65;0.65;;;;;;;28.15;nan;62746.19;5012541;28;20179;-65
2023/09/06 11:27:50;;;;;;;0.95;0.95;;;;;;;28.22;nan;62740.50;5011602;28;20198;-66
2023/09/06 11:30:23;;;;;;;1.45;1.35;;;;;;;28.47;nan;62796.03;5012103;28;20249;-65
2023/09/06 11:32:53;;;;;;;0.70;0.70;;;;;;;28.16;nan;62752.59;5012299;28;20163;-66
2023/09/06 11:35:22;;;;;;;1.33;1.17;;;;;;;28.06;nan;62773.22;5012010;28;20183;-65
2023/09/06 11:37:51;;;;;;;1.60;1.50;;;;;;;27.67;nan;62755.34;5012193;28;20175;-67
2023/09/06 11:40:20;;;;;;;0.98;0.95;;;;;;;27.93;nan;62947.50;5012108;28;20701;-65
2023/09/06 11:42:50;;;;;;;1.60;1.50;;;;;;;28.16;nan;62807.22;5012001;28;20183;-68
2023/09/06 11:45:19;;;;;;;0.70;0.70;;;;;;;28.16;nan;62884.03;5012030;28;20175;-68
2023/09/06 11:47:45;;;;;;;0.80;0.80;;;;;;;28.50;nan;62804.75;5011969;28;20172;-65
2023/09/06 11:50:18;;;;;;;0.95;0.95;;;;;;;28.44;nan;62902.47;5011748;28;20191;-68
2023/09/06 11:52:48;;;;;;;1.33;1.23;;;;;;;28.01;nan;62740.63;5012050;28;20155;-67
2023/09/06 11:55:17;;;;;;;1.42;1.33;;;;;;;27.83;nan;62710.06;5011936;28;20164;-65